createdAt,value
2022-08-10T00:00:23.560Z,43.83
2022-08-10T00:03:10.172Z,44.32
2022-08-10T00:05:56.716Z,44.25
2022-08-10T00:08:42.992Z,44.39
2022-08-10T00:11:29.139Z,44.59
2022-08-10T00:14:14.917Z,44.68
2022-08-10T00:17:00.695Z,44.71
2022-08-10T00:20:03.455Z,44.70
2022-08-10T00:22:57.593Z,44.91
2022-08-10T00:25:44.185Z,44.94
2022-08-10T00:28:30.626Z,45.19
2022-08-10T00:31:16.759Z,45.32
2022-08-10T00:34:02.869Z,45.33
2022-08-10T00:36:49.024Z,45.32
2022-08-10T00:39:36.337Z,45.42
2022-08-10T00:42:25.187Z,45.59
2022-08-10T00:45:11.835Z,45.46
2022-08-10T00:47:57.632Z,45.75
2022-08-10T00:50:43.334Z,45.67
2022-08-10T00:53:29.434Z,45.72
2022-08-10T00:56:34.963Z,45.69
2022-08-10T00:59:23.873Z,45.89
2022-08-10T01:02:11.835Z,46.02
2022-08-10T01:05:10.845Z,45.95
2022-08-10T01:08:07.757Z,46.01
2022-08-10T01:11:06.729Z,45.92
2022-08-10T01:14:50.300Z,46.69
2022-08-10T01:17:51.658Z,47.63
2022-08-10T01:20:45.512Z,46.16
2022-08-10T01:23:55.646Z,46.43
2022-08-10T01:27:16.406Z,46.80
2022-08-10T01:30:05.985Z,46.45
2022-08-10T01:33:10.248Z,46.39
2022-08-10T01:35:59.994Z,46.48
2022-08-10T01:38:50.436Z,46.40
2022-08-10T01:41:45.754Z,46.58
2022-08-10T01:44:39.865Z,46.43
2022-08-10T01:47:49.221Z,46.50
2022-08-10T01:50:59.470Z,46.60
2022-08-10T01:53:54.802Z,46.74
2022-08-10T01:56:43.412Z,46.82
2022-08-10T01:59:37.210Z,46.82
2022-08-10T02:02:23.891Z,46.71
2022-08-10T02:05:10.244Z,46.88
2022-08-10T02:07:57.089Z,46.87
2022-08-10T02:10:44.330Z,46.90
2022-08-10T02:13:31.335Z,47.10
2022-08-10T02:16:17.899Z,47.21
2022-08-10T02:19:05.053Z,47.25
2022-08-10T02:22:35.062Z,47.27
2022-08-10T03:56:44.071Z,47.76
2022-08-10T03:59:37.240Z,47.91
2022-08-10T04:02:43.206Z,48.10
2022-08-10T04:05:38.714Z,47.95
2022-08-10T04:08:25.176Z,48.06
2022-08-10T04:11:12.142Z,48.16
2022-08-10T04:13:57.918Z,48.19
2022-08-10T04:16:43.721Z,48.14
2022-08-10T04:19:30.377Z,48.13
2022-08-10T04:22:22.224Z,48.23
2022-08-10T04:25:08.740Z,48.25
2022-08-10T04:27:55.314Z,48.21
2022-08-10T04:30:45.268Z,48.14
2022-08-10T04:33:42.564Z,48.16
2022-08-10T04:36:28.836Z,48.31
2022-08-10T04:39:16.242Z,48.23
2022-08-10T04:42:05.796Z,48.24
2022-08-10T04:44:53.030Z,48.18
2022-08-10T04:47:57.272Z,48.19
2022-08-10T04:50:44.988Z,48.18
2022-08-10T04:54:04.411Z,48.18
2022-08-10T04:56:41.965Z,48.19
2022-08-10T04:59:27.763Z,48.17
2022-08-10T05:02:30.531Z,48.22
2022-08-10T05:05:20.422Z,48.15
2022-08-10T05:08:06.563Z,48.13
2022-08-10T05:10:53.101Z,48.19
2022-08-10T05:13:38.818Z,48.10
2022-08-10T05:16:31.868Z,48.09
2022-08-10T05:20:04.853Z,48.00
2022-08-10T05:22:28.318Z,48.06
2022-08-10T05:25:16.515Z,48.11
2022-08-10T05:28:06.300Z,48.09
2022-08-10T05:30:52.565Z,48.12
2022-08-10T05:33:38.285Z,48.10
2022-08-10T05:36:24.616Z,48.23
2022-08-10T05:39:10.867Z,48.04
2022-08-10T05:41:57.910Z,48.22
2022-08-10T05:44:47.413Z,48.24
2022-08-10T05:48:41.956Z,48.07
2022-08-10T05:50:39.617Z,48.05
2022-08-10T05:54:00.910Z,48.21
2022-08-10T05:56:56.807Z,48.20
2022-08-10T06:00:34.658Z,48.42
2022-08-10T06:03:02.526Z,48.33
2022-08-10T06:05:48.519Z,48.20
2022-08-10T06:08:35.865Z,48.17
2022-08-10T06:12:28.064Z,48.25
2022-08-10T06:14:57.989Z,48.37
2022-08-10T06:17:46.318Z,48.24
2022-08-10T06:20:49.711Z,48.08
2022-08-10T06:23:37.894Z,48.12
2022-08-10T06:26:24.069Z,48.17
2022-08-10T06:29:14.988Z,48.13
2022-08-10T06:32:01.949Z,48.24
2022-08-10T06:34:53.051Z,48.22
2022-08-10T06:37:40.250Z,47.98
2022-08-10T06:40:28.456Z,48.16
2022-08-10T06:43:17.856Z,48.06
2022-08-10T06:46:10.039Z,48.13
2022-08-10T06:49:03.548Z,48.05
2022-08-10T06:51:57.213Z,47.99
2022-08-10T06:54:52.179Z,47.97
2022-08-10T06:57:39.319Z,47.85
2022-08-10T07:00:32.435Z,48.05
2022-08-10T07:03:21.638Z,47.73
2022-08-10T07:06:08.324Z,47.57
2022-08-10T07:08:56.165Z,47.57
2022-08-10T07:11:44.563Z,47.66
2022-08-10T07:14:31.477Z,47.62
2022-08-10T07:17:21.664Z,47.50
2022-08-10T07:20:09.513Z,47.50
2022-08-10T07:23:26.808Z,47.48
2022-08-10T07:26:03.908Z,47.30
2022-08-10T07:28:51.183Z,47.13
2022-08-10T07:31:57.136Z,47.09
2022-08-10T07:34:45.386Z,47.12
2022-08-10T07:37:36.060Z,47.06
2022-08-10T07:40:22.689Z,46.88
2022-08-10T07:43:09.371Z,46.96
2022-08-10T07:45:57.053Z,46.84
2022-08-10T07:48:49.158Z,46.89
2022-08-10T07:51:36.593Z,46.86
2022-08-10T07:54:24.308Z,46.74
2022-08-10T07:57:31.874Z,46.75
2022-08-10T08:00:20.075Z,46.54
2022-08-10T08:03:07.632Z,46.49
2022-08-10T08:05:58.463Z,46.45
2022-08-10T08:08:49.818Z,46.38
2022-08-10T08:11:37.397Z,46.14
2022-08-10T08:14:24.069Z,46.29
2022-08-10T08:17:10.514Z,46.21
2022-08-10T08:19:57.875Z,46.05
2022-08-10T08:24:30.563Z,45.86
2022-08-10T08:25:56.418Z,45.90
2022-08-10T08:28:42.580Z,45.73
2022-08-10T08:31:28.554Z,45.75
2022-08-10T08:34:16.365Z,45.87
2022-08-10T08:37:03.288Z,45.80
2022-08-10T08:39:49.462Z,45.65
2022-08-10T08:43:24.733Z,45.40
2022-08-10T08:46:43.406Z,45.52
2022-08-10T08:50:08.177Z,45.41
2022-08-10T08:53:23.078Z,45.17
2022-08-10T08:56:50.468Z,44.83
2022-08-10T09:00:01.921Z,45.13
2022-08-10T09:02:55.650Z,44.62
2022-08-10T09:06:00.844Z,44.38
2022-08-10T09:09:12.514Z,44.46
2022-08-10T09:12:04.246Z,44.63
2022-08-10T09:15:05.566Z,44.69
2022-08-10T09:18:08.197Z,44.45
2022-08-10T09:21:31.600Z,44.20
2022-08-10T09:24:45.779Z,44.12
2022-08-10T09:27:44.107Z,44.08
2022-08-10T09:31:18.836Z,43.48
2022-08-10T09:36:24.061Z,43.51
2022-08-10T09:37:20.995Z,43.41
2022-08-10T09:41:00.191Z,43.49
2022-08-10T09:48:00.751Z,43.23
2022-08-10T09:54:54.773Z,42.97
2022-08-10T09:58:19.061Z,42.66
2022-08-10T10:01:56.399Z,42.71
2022-08-10T10:04:48.630Z,42.56
2022-08-10T10:07:38.906Z,42.73
2022-08-10T10:10:53.239Z,42.12
2022-08-10T10:14:02.385Z,42.22
2022-08-10T10:17:04.396Z,41.54
2022-08-10T10:20:31.456Z,41.85
2022-08-10T10:23:23.720Z,42.14
2022-08-10T10:26:22.017Z,41.97
2022-08-10T10:29:56.546Z,41.86
2022-08-10T10:33:17.029Z,41.34
2022-08-10T10:36:05.207Z,41.85
2022-08-10T10:38:52.256Z,41.39
2022-08-10T10:42:04.657Z,41.45
2022-08-10T10:45:27.355Z,40.73
2022-08-10T10:48:28.916Z,40.81
2022-08-10T10:51:32.825Z,39.68
2022-08-10T10:54:57.295Z,39.83
2022-08-10T11:02:48.693Z,40.04
2022-08-10T11:05:50.448Z,40.25
2022-08-10T11:08:40.158Z,40.44
2022-08-10T11:12:00.398Z,40.05
2022-08-10T11:14:55.258Z,41.02
2022-08-10T11:17:51.070Z,40.61
2022-08-10T11:20:57.453Z,40.45
2022-08-10T11:24:42.900Z,40.32
2022-08-10T11:27:33.197Z,40.25
2022-08-10T11:30:24.356Z,39.97
2022-08-10T11:33:32.507Z,39.84
2022-08-10T11:36:45.692Z,39.18
2022-08-10T11:39:48.544Z,40.00
2022-08-10T11:42:47.867Z,40.01
2022-08-10T11:45:51.524Z,40.11
2022-08-10T11:48:53.886Z,40.29
2022-08-10T11:51:47.956Z,39.93
2022-08-10T11:54:51.889Z,40.26
2022-08-10T11:57:53.897Z,40.26
2022-08-10T12:00:41.601Z,40.22
2022-08-10T12:03:31.349Z,40.26
2022-08-10T12:06:33.998Z,40.49
2022-08-10T12:10:10.715Z,40.27
2022-08-10T12:12:39.419Z,40.46
2022-08-10T12:15:35.684Z,40.10
2022-08-10T12:18:27.493Z,40.44
2022-08-10T12:21:21.933Z,39.84
2022-08-10T12:24:26.276Z,39.74
2022-08-10T12:27:20.520Z,39.92
2022-08-10T12:30:08.940Z,39.22
2022-08-10T12:33:05.188Z,38.23
2022-08-10T12:36:17.335Z,37.42
2022-08-10T12:39:22.568Z,37.42
2022-08-10T12:42:36.943Z,38.01
2022-08-10T12:45:34.219Z,37.75
2022-08-10T12:48:44.594Z,37.43
2022-08-10T12:51:31.612Z,37.08
2022-08-10T12:54:31.435Z,37.00
2022-08-10T12:57:22.508Z,36.37
2022-08-10T13:00:17.081Z,36.30
2022-08-10T13:03:06.512Z,36.02
2022-08-10T13:06:00.221Z,35.49
2022-08-10T13:09:08.362Z,35.30
2022-08-10T13:12:36.530Z,34.70
2022-08-10T13:15:45.993Z,34.47
2022-08-10T13:18:38.115Z,33.79
2022-08-10T13:21:30.244Z,33.25
2022-08-10T13:24:32.247Z,32.26
2022-08-10T13:27:25.752Z,31.90
2022-08-10T13:30:13.995Z,31.83
2022-08-10T13:33:01.519Z,31.81
2022-08-10T13:35:47.701Z,32.02
2022-08-10T13:38:44.040Z,31.96
2022-08-10T13:41:39.301Z,31.79
2022-08-10T13:44:44.809Z,32.06
2022-08-10T13:47:48.118Z,31.43
2022-08-10T13:50:37.623Z,30.90
2022-08-10T13:53:30.410Z,30.23
2022-08-10T13:56:16.952Z,29.40
2022-08-10T13:59:06.731Z,28.39
2022-08-10T14:01:56.781Z,28.07
2022-08-10T14:04:47.958Z,27.13
2022-08-10T14:07:34.956Z,26.65
2022-08-10T14:11:08.379Z,26.41
2022-08-10T14:13:28.753Z,25.81
2022-08-10T14:16:15.715Z,25.52
2022-08-10T14:19:16.602Z,25.14
2022-08-10T14:22:02.583Z,25.19
2022-08-10T14:24:49.045Z,24.91
2022-08-10T14:28:01.954Z,24.96
2022-08-10T14:30:44.159Z,24.16
2022-08-10T14:33:32.266Z,24.19
2022-08-10T14:36:43.070Z,23.18
2022-08-10T14:39:56.602Z,23.57
2022-08-10T14:42:49.669Z,24.28
2022-08-10T14:45:38.405Z,24.50
2022-08-10T14:48:33.043Z,24.70
2022-08-10T14:51:26.648Z,23.86
2022-08-10T14:54:15.920Z,23.50
2022-08-10T14:57:11.413Z,23.22
2022-08-10T15:00:24.766Z,22.62
2022-08-10T15:03:49.398Z,22.52
2022-08-10T15:06:17.091Z,21.88
2022-08-10T15:09:19.495Z,21.73
2022-08-10T15:12:13.355Z,21.40
2022-08-10T15:15:07.783Z,21.63
2022-08-10T15:17:57.520Z,21.45
2022-08-10T15:20:44.322Z,21.38
2022-08-10T15:24:05.248Z,21.22
2022-08-10T15:26:57.462Z,21.55
2022-08-10T15:29:57.136Z,22.41
2022-08-10T15:33:10.326Z,23.16
2022-08-10T15:36:17.101Z,24.44
2022-08-10T15:40:20.697Z,25.02
2022-08-10T15:42:16.560Z,25.92
2022-08-10T15:45:03.481Z,26.17
2022-08-10T15:48:03.172Z,26.87
2022-08-10T15:50:50.895Z,27.88
2022-08-10T15:53:49.857Z,28.00
2022-08-10T15:56:46.208Z,28.87
2022-08-10T15:59:34.659Z,29.16
2022-08-10T16:02:25.026Z,29.80
2022-08-10T16:05:16.232Z,30.28
2022-08-10T16:08:07.845Z,30.83
2022-08-10T16:11:08.840Z,31.34
2022-08-10T16:14:00.660Z,31.54
2022-08-10T16:16:56.065Z,31.80
2022-08-10T16:19:48.700Z,31.82
2022-08-10T16:22:37.633Z,32.34
2022-08-10T16:25:24.546Z,32.48
2022-08-10T16:28:40.105Z,32.63
2022-08-10T16:31:27.367Z,32.69
2022-08-10T16:34:16.063Z,32.71
2022-08-10T16:37:08.169Z,33.06
2022-08-10T16:40:01.021Z,32.84
2022-08-10T16:42:49.401Z,32.97
2022-08-10T16:45:38.921Z,33.01
2022-08-10T16:48:49.000Z,32.86
2022-08-10T16:51:32.174Z,33.12
2022-08-10T16:54:27.048Z,33.13
2022-08-10T16:57:14.329Z,33.17
2022-08-10T17:00:00.230Z,33.22
2022-08-10T17:02:52.897Z,33.20
2022-08-10T17:06:03.420Z,33.06
2022-08-10T17:08:49.122Z,33.16
2022-08-10T17:11:36.588Z,33.33
2022-08-10T17:14:24.800Z,33.48
2022-08-10T17:17:26.362Z,33.79
2022-08-10T17:20:30.395Z,33.66
2022-08-10T17:23:19.350Z,33.84
2022-08-10T17:26:11.255Z,34.15
2022-08-10T17:29:06.720Z,34.05
2022-08-10T17:31:55.669Z,33.99
2022-08-10T17:34:46.228Z,34.36
2022-08-10T17:37:37.488Z,34.62
2022-08-10T17:40:26.040Z,34.35
2022-08-10T17:43:12.649Z,34.65
2022-08-10T17:46:18.986Z,34.84
2022-08-10T17:49:09.574Z,35.01
2022-08-10T17:51:56.818Z,34.85
2022-08-10T17:54:44.520Z,35.43
2022-08-10T17:57:35.660Z,35.25
2022-08-10T18:00:22.365Z,35.36
2022-08-10T18:03:25.479Z,35.64
2022-08-10T18:06:16.036Z,35.68
2022-08-10T18:09:04.453Z,35.47
2022-08-10T18:11:50.892Z,35.74
2022-08-10T18:14:37.105Z,35.82
2022-08-10T18:17:33.740Z,35.91
2022-08-10T18:20:27.819Z,35.87
2022-08-10T18:23:14.617Z,35.91
2022-08-10T18:26:05.348Z,35.77
2022-08-10T18:28:53.109Z,35.92
2022-08-10T18:31:41.962Z,36.13
2022-08-10T18:34:30.406Z,36.40
2022-08-10T18:37:20.427Z,36.30
2022-08-10T18:40:09.508Z,36.60
2022-08-10T18:42:56.984Z,36.61
2022-08-10T18:45:44.832Z,36.56
2022-08-10T18:48:39.020Z,36.88
2022-08-10T18:51:27.941Z,36.94
2022-08-10T18:54:39.384Z,36.84
2022-08-10T18:58:02.727Z,36.91
2022-08-10T19:01:13.462Z,36.80
2022-08-10T19:04:14.851Z,37.08
2022-08-10T19:07:24.993Z,37.66
2022-08-10T19:10:34.646Z,38.04
2022-08-10T19:13:34.597Z,37.77
2022-08-10T19:16:48.888Z,37.32
2022-08-10T19:19:42.459Z,37.36
2022-08-10T19:22:37.502Z,37.29
2022-08-10T19:26:38.096Z,37.85
2022-08-10T19:29:13.990Z,37.59
2022-08-10T19:32:38.701Z,37.60
2022-08-10T19:36:04.019Z,37.61
2022-08-10T19:39:15.689Z,37.38
2022-08-10T19:42:14.989Z,37.17
2022-08-10T19:45:55.373Z,36.81
2022-08-10T19:48:40.477Z,36.88
2022-08-10T19:51:30.416Z,36.97
2022-08-10T19:54:26.430Z,36.99
2022-08-10T19:57:34.695Z,36.87
2022-08-10T20:00:26.992Z,36.99
2022-08-10T20:03:17.343Z,36.82
2022-08-10T20:06:19.297Z,37.09
2022-08-10T20:09:06.827Z,37.15
2022-08-10T20:12:08.714Z,37.28
2022-08-10T20:15:04.632Z,37.28
2022-08-10T20:18:27.387Z,37.38
2022-08-10T20:21:29.375Z,37.49
2022-08-10T20:24:59.377Z,37.66
2022-08-10T20:28:01.976Z,37.53
2022-08-10T20:30:53.519Z,37.24
2022-08-10T20:34:01.630Z,37.46
2022-08-10T20:37:05.325Z,37.57
2022-08-10T20:40:12.615Z,37.50
2022-08-10T20:43:24.758Z,37.83
2022-08-10T20:46:27.642Z,37.88
2022-08-10T20:49:31.883Z,37.83
2022-08-10T20:52:18.528Z,37.83
2022-08-10T20:55:09.029Z,37.58
2022-08-10T20:58:14.724Z,37.71
2022-08-10T21:02:07.199Z,38.00
2022-08-10T21:04:44.036Z,37.85
2022-08-10T21:08:00.550Z,37.99
2022-08-10T21:10:58.960Z,38.12
2022-08-10T21:13:58.355Z,38.14
2022-08-10T21:16:47.787Z,37.94
2022-08-10T21:19:36.915Z,38.04
2022-08-10T21:22:29.418Z,38.19
2022-08-10T21:25:30.145Z,38.11
2022-08-10T21:28:28.962Z,38.07
2022-08-10T21:31:33.892Z,38.30
2022-08-10T21:34:37.966Z,38.24
2022-08-10T21:37:56.769Z,38.39
2022-08-10T21:41:18.403Z,38.23
2022-08-10T21:45:08.184Z,38.27
2022-08-10T21:52:25.395Z,38.44
2022-08-10T21:55:55.977Z,38.66
2022-08-10T21:59:22.997Z,38.96
2022-08-10T22:02:31.902Z,38.77
2022-08-10T22:05:49.584Z,38.83
2022-08-10T22:09:01.484Z,38.90
2022-08-10T22:12:31.399Z,39.06
2022-08-10T22:16:09.699Z,39.05
2022-08-10T22:19:14.760Z,39.20
2022-08-10T22:22:27.815Z,39.15
2022-08-10T22:25:53.329Z,39.23
2022-08-10T22:29:06.572Z,39.34
2022-08-10T22:31:25.375Z,38.37
2022-08-10T22:32:37.926Z,39.51
2022-08-10T22:36:08.819Z,39.50
2022-08-10T22:40:10.187Z,39.32
2022-08-10T22:42:59.572Z,39.33
2022-08-10T22:46:19.960Z,39.65
2022-08-10T22:49:06.386Z,39.41
2022-08-10T22:52:01.946Z,39.43
2022-08-10T22:55:20.792Z,39.73
2022-08-10T22:58:25.220Z,39.66
2022-08-10T23:01:36.110Z,39.56
2022-08-10T23:04:27.445Z,40.05
2022-08-10T23:07:25.027Z,39.73
2022-08-10T23:10:12.877Z,39.80
2022-08-10T23:13:35.578Z,39.94
2022-08-10T23:16:46.993Z,39.83
2022-08-10T23:19:47.736Z,39.98
2022-08-10T23:22:36.471Z,39.95
2022-08-10T23:25:27.169Z,39.78
2022-08-10T23:28:17.392Z,40.07
2022-08-10T23:31:59.195Z,40.09
2022-08-10T23:34:33.341Z,40.23
2022-08-10T23:37:19.657Z,40.32
2022-08-10T23:40:13.708Z,40.33
2022-08-10T23:42:59.817Z,40.18
2022-08-10T23:45:53.012Z,40.38
2022-08-10T23:48:40.832Z,40.35
2022-08-10T23:51:54.438Z,40.30
2022-08-10T23:54:54.622Z,40.46
2022-08-10T23:57:42.559Z,40.39
